Terminal Aerodrome Forecast
Issued by NWS

Home | Current Version | Previous Version | Text Only | Print | Product List | Glossary On
Versions: 1 2 3 4 5 6 7 8 9 10 11 12 13 14 15 16
794
FTUS44 KBMX 050703 AAA
TAFTOI
TAF AMD
KTOI 050703Z 0507/0606 00000KT 3SM -RA BR OVC002
     FM051500 05005KT 3SM -RA BR OVC003
     FM051800 04005KT 6SM -RA BR OVC007=

USA.gov is the U.S. government's official web portal to all federal, state and local government web resources and services.